Time;durP1;ratioP1;P1;durP2;ratioP2;P2;SDS_P1;SDS_P2;PMS_P1;PMS_P2;Temp;Humidity;BMP_temperature;BMP_pressure;BME280_temperature;BME280_humidity;BME280_pressure;Samples;Min_cycle;Max_cycle;Signal;HPM_P1;HPM_P2
2020/12/18 00:00:12;;;;;;;23.37;13.47;;;;;;;2.46;100.00;97413.91;4994324;28;20196;-95
2020/12/18 00:02:51;;;;;;;28.23;11.87;;;;;;;2.37;100.00;97410.03;4995541;28;20188;-96
2020/12/18 00:05:39;;;;;;;20.83;13.50;;;;;;;2.39;100.00;97412.56;4994804;28;20200;-95
2020/12/18 00:10:52;;;;;;;26.17;12.73;;;;;;;2.41;100.00;97404.66;4992187;28;20748;-95
2020/12/18 00:13:20;;;;;;;23.83;12.97;;;;;;;2.30;100.00;97402.66;4995188;28;20210;-94
2020/12/18 00:15:47;;;;;;;22.63;14.03;;;;;;;2.08;100.00;97408.94;4995701;28;20660;-95
2020/12/18 00:18:17;;;;;;;29.50;13.70;;;;;;;2.10;100.00;97406.25;4995647;28;20212;-96
2020/12/18 00:20:55;;;;;;;27.93;14.13;;;;;;;1.91;100.00;97414.16;4995622;28;20196;-95
2020/12/18 00:23:25;;;;;;;24.47;13.30;;;;;;;1.94;100.00;97420.91;4995390;28;20219;-96
2020/12/18 00:26:01;;;;;;;29.93;12.53;;;;;;;1.86;100.00;97423.88;4994456;28;20204;-94
2020/12/18 00:28:34;;;;;;;36.13;13.40;;;;;;;1.93;100.00;97427.84;4995254;28;20192;-95
2020/12/18 00:33:55;;;;;;;25.37;12.87;;;;;;;1.93;100.00;97427.84;4994804;28;20196;-95
2020/12/18 00:36:55;;;;;;;21.20;12.47;;;;;;;2.18;100.00;97424.84;4994605;28;20226;-94
2020/12/18 00:39:26;;;;;;;23.27;12.73;;;;;;;2.20;100.00;97420.44;4994829;28;20231;-95
2020/12/18 00:41:56;;;;;;;23.00;12.10;;;;;;;2.17;100.00;97417.16;4994828;28;20204;-95
2020/12/18 00:44:29;;;;;;;26.70;13.07;;;;;;;2.18;100.00;97421.41;4977396;28;20206;-96
2020/12/18 00:47:05;;;;;;;27.67;14.27;;;;;;;2.19;100.00;97410.97;4993911;28;20200;-94
2020/12/18 00:49:32;;;;;;;25.70;13.00;;;;;;;2.26;100.00;97416.69;4932843;28;20200;-95
2020/12/18 00:57:59;;;;;;;21.07;12.70;;;;;;;2.29;100.00;97409.59;4981275;28;20280;-95
2020/12/18 01:00:44;;;;;;;21.60;12.63;;;;;;;2.36;100.00;97418.72;4976778;28;20228;-95
2020/12/18 01:03:15;;;;;;;22.37;13.03;;;;;;;2.23;100.00;97414.25;4994252;28;20188;-95
2020/12/18 01:05:42;;;;;;;29.77;15.47;;;;;;;2.10;100.00;97414.03;4977511;28;20199;-96
2020/12/18 01:08:09;;;;;;;25.43;14.27;;;;;;;2.13;100.00;97417.31;4995120;28;20189;-95
2020/12/18 01:10:37;;;;;;;25.67;11.00;;;;;;;2.18;100.00;97411.03;4995830;28;20244;-96
2020/12/18 01:13:04;;;;;;;23.20;12.37;;;;;;;1.96;100.00;97419.91;4995626;28;20204;-96
2020/12/18 01:15:31;;;;;;;23.67;11.87;;;;;;;1.94;100.00;97419.19;4994656;28;20200;-95
2020/12/18 01:17:58;;;;;;;19.03;12.27;;;;;;;2.00;100.00;97416.25;4994526;28;20678;-96
2020/12/18 01:20:25;;;;;;;22.27;12.93;;;;;;;2.09;100.00;97405.41;4993733;28;20199;-95
2020/12/18 01:22:51;;;;;;;21.20;13.67;;;;;;;1.95;100.00;97412.22;4993972;28;20196;-95
2020/12/18 01:25:18;;;;;;;17.57;11.90;;;;;;;2.04;100.00;97412.59;4994449;28;20246;-96
2020/12/18 01:27:52;;;;;;;24.53;14.27;;;;;;;2.18;100.00;97419.66;4994518;28;20196;-94
2020/12/18 01:30:22;;;;;;;15.50;11.10;;;;;;;2.24;100.00;97415.94;4994840;28;20230;-95
2020/12/18 01:33:21;;;;;;;17.40;11.97;;;;;;;2.01;100.00;97414.50;4975029;28;20200;-95
2020/12/18 01:35:56;;;;;;;14.73;10.60;;;;;;;2.01;100.00;97417.94;4994503;28;20204;-96
2020/12/18 01:38:24;;;;;;;14.23;9.57;;;;;;;2.12;100.00;97407.03;4977246;28;20195;-96
2020/12/18 01:43:40;;;;;;;17.10;9.70;;;;;;;2.05;100.00;97408.25;4993861;28;20231;-95
2020/12/18 01:49:20;;;;;;;19.47;10.17;;;;;;;2.03;100.00;97418.69;4994594;28;20254;-96
2020/12/18 01:51:55;;;;;;;15.03;8.97;;;;;;;2.04;100.00;97411.75;4977701;28;20286;-96
2020/12/18 01:54:29;;;;;;;17.63;10.57;;;;;;;1.97;100.00;97411.22;4994166;28;20192;-96
2020/12/18 01:57:07;;;;;;;17.80;11.40;;;;;;;1.94;100.00;97411.41;4993417;28;20280;-96
2020/12/18 01:59:35;;;;;;;15.47;9.83;;;;;;;2.03;100.00;97405.72;4995602;28;20633;-95
2020/12/18 02:04:54;;;;;;;13.83;8.93;;;;;;;1.84;100.00;97403.25;4991506;28;20200;-95
2020/12/18 02:07:24;;;;;;;12.43;8.63;;;;;;;1.84;100.00;97405.00;4992759;28;20278;-95
2020/12/18 02:10:16;;;;;;;12.67;8.73;;;;;;;1.79;100.00;97402.63;4992748;28;20235;-95
2020/12/18 02:15:38;;;;;;;11.37;8.07;;;;;;;1.91;100.00;97408.97;4993440;28;20619;-95
2020/12/18 02:21:02;;;;;;;8.57;6.43;;;;;;;1.99;100.00;97403.38;4990927;28;20200;-95
2020/12/18 02:23:29;;;;;;;11.90;6.70;;;;;;;1.88;100.00;97409.94;4993333;28;20303;-96
2020/12/18 02:26:09;;;;;;;11.47;7.83;;;;;;;1.82;100.00;97412.00;4994011;28;20662;-96
2020/12/18 02:28:55;;;;;;;9.43;8.13;;;;;;;1.93;100.00;97420.06;4993433;28;20200;-96
2020/12/18 02:31:22;;;;;;;9.10;7.20;;;;;;;1.75;100.00;97416.66;4994275;28;20224;-96
2020/12/18 02:33:54;;;;;;;9.20;6.53;;;;;;;1.58;100.00;97420.06;4992776;28;20231;-96
2020/12/18 02:36:27;;;;;;;9.20;7.23;;;;;;;1.70;100.00;97410.00;4993621;28;20589;-94
2020/12/18 02:41:55;;;;;;;8.00;5.67;;;;;;;1.67;100.00;97409.25;4991542;28;20204;-95
2020/12/18 02:47:04;;;;;;;15.43;10.03;;;;;;;1.66;100.00;97405.00;4992227;28;20208;-95
2020/12/18 02:49:50;;;;;;;15.83;9.60;;;;;;;1.77;100.00;97406.22;4994168;28;20219;-95
2020/12/18 02:52:22;;;;;;;13.07;9.27;;;;;;;1.65;100.00;97405.91;4994393;28;20200;-95
2020/12/18 02:54:50;;;;;;;14.73;10.10;;;;;;;1.69;100.00;97411.75;4995567;28;20204;-95
2020/12/18 02:57:49;;;;;;;16.17;10.83;;;;;;;1.76;100.00;97413.13;4994669;28;20201;-95
2020/12/18 03:00:22;;;;;;;19.43;11.57;;;;;;;1.65;100.00;97405.91;4935412;29;20206;-94
2020/12/18 03:02:50;;;;;;;12.37;8.97;;;;;;;1.52;100.00;97410.00;4935482;29;20211;-95
2020/12/18 03:05:18;;;;;;;12.87;8.53;;;;;;;1.57;100.00;97407.19;4936353;29;20207;-94
2020/12/18 03:10:28;;;;;;;10.60;7.77;;;;;;;1.89;100.00;97408.19;4935115;29;20234;-95
2020/12/18 03:13:01;;;;;;;12.60;8.30;;;;;;;1.72;100.00;97405.59;4935472;29;20234;-94
2020/12/18 03:15:28;;;;;;;9.23;7.47;;;;;;;1.51;100.00;97413.50;4935753;29;20290;-95
2020/12/18 03:17:55;;;;;;;10.13;7.73;;;;;;;1.66;100.00;97407.59;4935869;29;20202;-95
2020/12/18 03:20:22;;;;;;;9.47;7.03;;;;;;;1.63;100.00;97407.75;4935578;29;20202;-96
2020/12/18 03:22:49;;;;;;;8.97;6.67;;;;;;;1.59;100.00;97402.75;4935178;29;20306;-95
2020/12/18 03:25:16;;;;;;;9.10;6.53;;;;;;;1.64;100.00;97408.56;4935768;29;20253;-95
2020/12/18 03:27:42;;;;;;;8.83;6.83;;;;;;;1.80;100.00;97414.69;4935641;29;20676;-94
2020/12/18 03:30:09;;;;;;;12.97;7.27;;;;;;;1.64;100.00;97424.97;4935633;29;20264;-93
2020/12/18 03:32:37;;;;;;;8.37;6.37;;;;;;;1.60;100.00;97418.25;4935631;29;20209;-94
2020/12/18 03:35:21;;;;;;;8.77;6.20;;;;;;;1.66;100.00;97423.13;4935179;29;20241;-94
2020/12/18 03:37:49;;;;;;;9.93;6.47;;;;;;;1.73;100.00;97420.22;4968767;28;20189;-94
2020/12/18 03:40:16;;;;;;;11.47;6.70;;;;;;;1.79;100.00;97414.75;4995361;28;20248;-94
2020/12/18 03:42:43;;;;;;;10.90;7.90;;;;;;;1.77;100.00;97414.84;4994974;28;20223;-94
2020/12/18 03:45:09;;;;;;;10.77;8.17;;;;;;;1.71;100.00;97416.88;4994798;28;20674;-93
2020/12/18 03:47:37;;;;;;;12.20;8.40;;;;;;;1.73;100.00;97408.09;4995011;28;20259;-95
2020/12/18 03:50:06;;;;;;;13.70;9.90;;;;;;;1.84;100.00;97405.84;4995028;28;20215;-96
2020/12/18 03:52:33;;;;;;;11.17;7.87;;;;;;;1.74;100.00;97403.78;4994799;28;20203;-93
2020/12/18 03:55:00;;;;;;;12.70;8.30;;;;;;;1.73;100.00;97402.91;4995119;28;20200;-96
2020/12/18 03:57:30;;;;;;;13.27;7.73;;;;;;;1.79;100.00;97399.19;4995422;28;20635;-96
2020/12/18 03:59:57;;;;;;;12.93;9.17;;;;;;;1.83;100.00;97400.72;4993624;28;20263;-93
2020/12/18 04:02:24;;;;;;;11.57;7.97;;;;;;;1.70;100.00;97413.47;4995460;28;20196;-92
2020/12/18 04:04:52;;;;;;;10.70;8.03;;;;;;;1.83;100.00;97411.06;4995325;28;20212;-94
2020/12/18 04:07:20;;;;;;;9.83;8.03;;;;;;;1.96;100.00;97414.72;4994589;28;20196;-95
2020/12/18 04:09:47;;;;;;;12.30;8.90;;;;;;;1.98;100.00;97410.31;4995112;28;20243;-95
2020/12/18 04:12:14;;;;;;;11.57;9.23;;;;;;;2.05;100.00;97409.09;4994077;28;20204;-95
2020/12/18 04:14:40;;;;;;;14.17;9.93;;;;;;;2.07;100.00;97407.25;4993753;28;20240;-95
2020/12/18 04:17:08;;;;;;;12.17;8.47;;;;;;;2.22;100.00;97410.81;4994351;28;20204;-96
2020/12/18 04:19:35;;;;;;;11.23;8.43;;;;;;;2.12;100.00;97409.63;4994331;28;20200;-96
2020/12/18 04:22:05;;;;;;;11.07;8.57;;;;;;;2.17;100.00;97411.97;4993260;28;20204;-96
2020/12/18 04:24:44;;;;;;;17.30;8.93;;;;;;;2.17;100.00;97411.97;4993439;28;20196;-95
2020/12/18 04:27:11;;;;;;;11.77;8.83;;;;;;;2.10;100.00;97424.41;4957556;28;20224;-94
2020/12/18 04:29:39;;;;;;;13.80;8.93;;;;;;;2.18;100.00;97424.00;4974759;28;20205;-96
2020/12/18 04:32:09;;;;;;;12.37;8.70;;;;;;;2.23;100.00;97424.63;4975253;28;20229;-95
2020/12/18 04:34:36;;;;;;;15.40;9.90;;;;;;;2.16;100.00;97425.88;4974646;28;20212;-93
2020/12/18 04:37:05;;;;;;;13.43;8.93;;;;;;;2.06;100.00;97430.66;4976282;28;20209;-94
2020/12/18 04:39:32;;;;;;;12.60;8.93;;;;;;;1.95;100.00;97436.41;4975887;28;20209;-92
2020/12/18 04:41:59;;;;;;;12.90;8.93;;;;;;;1.91;100.00;97442.66;4975104;28;20689;-93
2020/12/18 04:44:26;;;;;;;13.00;8.67;;;;;;;2.03;100.00;97449.81;4975062;28;20201;-93
2020/12/18 04:46:57;;;;;;;15.97;9.63;;;;;;;2.05;100.00;97449.75;4974746;28;20662;-93
2020/12/18 04:49:29;;;;;;;13.50;9.80;;;;;;;2.01;100.00;97443.88;4974968;28;20198;-93
2020/12/18 04:52:01;;;;;;;44.17;27.30;;;;;;;2.05;100.00;97450.59;4974339;28;20259;-93
2020/12/18 04:54:29;;;;;;;279.83;137.10;;;;;;;1.96;100.00;97445.00;4974710;28;20189;-93
2020/12/18 04:56:56;;;;;;;78.93;48.97;;;;;;;2.05;100.00;97449.75;4974493;28;20201;-93
2020/12/18 04:59:24;;;;;;;40.83;29.07;;;;;;;2.13;100.00;97455.38;4974490;28;20205;-93
2020/12/18 05:01:54;;;;;;;20.47;15.67;;;;;;;2.22;100.00;97454.94;4974610;28;20205;-93
2020/12/18 05:04:21;;;;;;;15.57;11.17;;;;;;;2.31;100.00;97445.81;4974765;28;20208;-93
2020/12/18 05:06:49;;;;;;;20.90;13.73;;;;;;;2.23;100.00;97443.63;4974794;28;20224;-92
2020/12/18 05:09:16;;;;;;;30.60;21.20;;;;;;;2.26;100.00;97448.66;4974736;28;20208;-93
2020/12/18 05:11:45;;;;;;;27.60;20.07;;;;;;;2.17;100.00;97453.47;4973903;28;20229;-93
2020/12/18 05:14:12;;;;;;;30.20;21.00;;;;;;;2.09;100.00;97462.47;4974034;28;20401;-91
2020/12/18 05:16:41;;;;;;;28.73;18.63;;;;;;;2.06;100.00;97459.19;4974487;28;20288;-93
2020/12/18 05:19:08;;;;;;;24.10;16.30;;;;;;;2.03;100.00;97457.59;4974353;28;20200;-93
2020/12/18 05:21:38;;;;;;;33.63;19.93;;;;;;;1.93;100.00;97458.97;4974199;28;20193;-92
2020/12/18 05:24:05;;;;;;;72.50;36.60;;;;;;;1.97;100.00;97476.03;4974081;28;20264;-93
2020/12/18 05:26:32;;;;;;;36.23;21.80;;;;;;;1.97;100.00;97473.44;4974433;28;20228;-92
2020/12/18 05:29:06;;;;;;;15.67;11.53;;;;;;;1.90;100.00;97478.13;4974148;28;20320;-94
2020/12/18 05:31:33;;;;;;;12.77;9.37;;;;;;;1.93;100.00;97479.72;4973844;28;20208;-94
2020/12/18 05:34:04;;;;;;;14.00;9.93;;;;;;;1.95;100.00;97475.28;4974092;28;20208;-93
2020/12/18 05:36:32;;;;;;;15.10;10.47;;;;;;;1.84;100.00;97481.00;4974466;28;20745;-93
2020/12/18 05:38:59;;;;;;;13.00;9.33;;;;;;;1.88;100.00;97479.09;4974243;28;20259;-93
2020/12/18 05:41:26;;;;;;;15.73;10.00;;;;;;;1.96;100.00;97481.31;4974234;28;20200;-93
2020/12/18 05:43:54;;;;;;;11.83;8.13;;;;;;;1.96;100.00;97482.16;4973579;28;20204;-93
2020/12/18 05:46:23;;;;;;;14.50;9.87;;;;;;;1.97;100.00;97472.63;4974368;28;20197;-94
2020/12/18 05:48:56;;;;;;;13.63;10.07;;;;;;;2.02;100.00;97478.44;4973950;28;20216;-94
2020/12/18 05:51:27;;;;;;;14.73;10.73;;;;;;;2.08;100.00;97486.75;4973900;28;20201;-93
2020/12/18 05:54:11;;;;;;;12.57;8.40;;;;;;;1.97;100.00;97486.41;4974024;28;20205;-92
2020/12/18 05:56:39;;;;;;;11.57;9.90;;;;;;;1.94;100.00;97493.50;4974114;28;20263;-93
2020/12/18 05:59:08;;;;;;;19.83;13.87;;;;;;;1.83;100.00;97497.47;4973910;28;20201;-93
2020/12/18 06:01:40;;;;;;;20.53;13.23;;;;;;;2.02;100.00;97496.56;4973872;28;20218;-93
2020/12/18 06:04:12;;;;;;;16.77;11.03;;;;;;;1.81;100.00;97491.53;4973914;28;20217;-93
2020/12/18 06:06:45;;;;;;;14.57;10.70;;;;;;;1.87;100.00;97498.16;4974039;28;20200;-93
2020/12/18 06:09:12;;;;;;;17.33;12.30;;;;;;;1.84;100.00;97490.53;4974048;28;20288;-93
2020/12/18 06:11:39;;;;;;;11.50;9.47;;;;;;;1.71;100.00;97503.25;4973726;28;20287;-93
2020/12/18 06:14:08;;;;;;;12.57;9.67;;;;;;;1.66;100.00;97500.03;4973376;28;20331;-93
2020/12/18 06:16:42;;;;;;;9.80;7.97;;;;;;;1.49;100.00;97502.56;4973930;28;20600;-92
2020/12/18 06:19:10;;;;;;;7.77;5.57;;;;;;;1.70;100.00;97498.13;4973645;28;20256;-93
2020/12/18 06:21:37;;;;;;;9.30;6.20;;;;;;;1.84;100.00;97500.91;4973804;28;20236;-93
2020/12/18 06:24:05;;;;;;;8.27;5.97;;;;;;;1.85;100.00;97500.81;4975239;28;20277;-93
2020/12/18 06:26:32;;;;;;;9.73;6.93;;;;;;;1.90;100.00;97503.19;4977207;28;20250;-93
2020/12/18 06:29:03;;;;;;;8.53;6.90;;;;;;;1.83;100.00;97515.59;4977257;28;20204;-93
2020/12/18 06:31:32;;;;;;;7.83;6.93;;;;;;;1.94;100.00;97509.06;4977341;28;20235;-93
2020/12/18 06:34:02;;;;;;;13.50;9.47;;;;;;;2.01;100.00;97506.13;4977299;28;20637;-93
2020/12/18 06:37:01;;;;;;;14.17;9.83;;;;;;;2.11;100.00;97507.34;4977388;28;20205;-92
2020/12/18 06:39:31;;;;;;;13.20;8.70;;;;;;;1.96;100.00;97513.25;4977284;28;20236;-93
2020/12/18 06:42:16;;;;;;;12.30;9.73;;;;;;;2.02;100.00;97505.19;4977467;28;20201;-93
2020/12/18 06:44:46;;;;;;;13.53;9.70;;;;;;;2.11;100.00;97504.75;4977414;28;20658;-94
2020/12/18 06:47:19;;;;;;;11.57;8.20;;;;;;;2.21;100.00;97506.88;4976823;28;20205;-92
2020/12/18 06:50:09;;;;;;;8.63;7.10;;;;;;;2.18;100.00;97507.84;4977273;28;20630;-93
2020/12/18 06:52:42;;;;;;;11.60;9.20;;;;;;;1.98;100.00;97505.44;4976654;28;20251;-92
2020/12/18 06:55:10;;;;;;;16.17;10.70;;;;;;;2.03;100.00;97509.44;4977244;28;20228;-92
2020/12/18 06:57:38;;;;;;;14.90;11.37;;;;;;;1.87;100.00;97505.91;4976914;28;20666;-92
2020/12/18 07:00:27;;;;;;;19.47;14.40;;;;;;;2.04;100.00;97500.75;4976698;28;20200;-92
2020/12/18 07:02:54;;;;;;;35.53;23.37;;;;;;;1.96;100.00;97512.44;4976463;28;20248;-93
2020/12/18 07:05:36;;;;;;;100.33;53.87;;;;;;;2.10;100.00;97504.81;4977265;28;20204;-92
2020/12/18 07:08:06;;;;;;;34.77;22.97;;;;;;;1.96;100.00;97504.66;4976535;28;20292;-92
2020/12/18 07:10:37;;;;;;;19.97;14.73;;;;;;;1.95;100.00;97498.63;4976647;28;20256;-93
2020/12/18 07:13:05;;;;;;;79.13;49.83;;;;;;;2.08;100.00;97504.91;4976467;28;20229;-92
2020/12/18 07:15:57;;;;;;;49.10;31.67;;;;;;;2.08;100.00;97509.25;4977289;28;20677;-92
2020/12/18 07:18:26;;;;;;;23.50;18.77;;;;;;;2.21;100.00;97502.50;4976677;28;20201;-92
2020/12/18 07:20:56;;;;;;;15.07;12.53;;;;;;;2.12;100.00;97501.22;4976419;28;20201;-92
2020/12/18 07:23:24;;;;;;;17.07;11.47;;;;;;;2.09;100.00;97493.59;4976132;28;20201;-92
2020/12/18 07:25:51;;;;;;;15.73;10.67;;;;;;;2.13;100.00;97497.72;4976583;28;20212;-92
2020/12/18 07:28:19;;;;;;;12.10;9.17;;;;;;;2.17;100.00;97498.41;4976095;28;20209;-93
2020/12/18 07:30:47;;;;;;;12.13;9.00;;;;;;;2.21;100.00;97493.91;4975971;28;20220;-93
2020/12/18 07:33:16;;;;;;;10.87;8.90;;;;;;;2.03;100.00;97499.09;4975963;28;20197;-93
2020/12/18 07:35:44;;;;;;;15.73;11.80;;;;;;;2.13;100.00;97508.09;4975918;28;20204;-93
2020/12/18 07:38:17;;;;;;;13.60;9.43;;;;;;;2.21;100.00;97505.09;4975951;28;20714;-92
2020/12/18 07:40:44;;;;;;;12.87;8.63;;;;;;;2.21;100.00;97505.09;4975945;28;20284;-93
2020/12/18 07:43:12;;;;;;;14.23;9.73;;;;;;;2.10;100.00;97508.22;4976030;28;20201;-93
2020/12/18 07:45:42;;;;;;;11.77;8.47;;;;;;;2.23;100.00;97508.47;4976516;28;20208;-92
2020/12/18 07:48:15;;;;;;;13.57;9.53;;;;;;;2.24;100.00;97504.13;4976067;28;20204;-93
2020/12/18 07:50:57;;;;;;;17.13;10.43;;;;;;;2.24;100.00;97504.13;4975627;28;20685;-93
2020/12/18 07:53:26;;;;;;;13.17;9.80;;;;;;;2.09;100.00;97514.34;4974102;28;20197;-92
2020/12/18 07:56:05;;;;;;;10.30;8.00;;;;;;;2.25;100.00;97513.56;4975757;28;20206;-92
2020/12/18 07:58:33;;;;;;;14.63;8.90;;;;;;;2.16;100.00;97519.22;4975386;28;20189;-92
2020/12/18 08:01:08;;;;;;;12.93;8.50;;;;;;;2.11;100.00;97514.25;4975855;28;20201;-92
2020/12/18 08:03:35;;;;;;;12.67;9.93;;;;;;;2.13;100.00;97515.88;4975569;28;20208;-92
2020/12/18 08:06:06;;;;;;;12.97;8.70;;;;;;;2.32;100.00;97513.22;4975762;28;20224;-93
2020/12/18 08:08:34;;;;;;;12.67;8.00;;;;;;;2.28;100.00;97519.44;4975166;28;20201;-93
2020/12/18 08:11:02;;;;;;;12.80;8.23;;;;;;;2.23;100.00;97523.19;4975413;28;20348;-92
2020/12/18 08:13:31;;;;;;;10.07;7.00;;;;;;;2.31;100.00;97515.88;4975187;28;20236;-92
2020/12/18 08:16:10;;;;;;;12.20;7.90;;;;;;;2.27;100.00;97516.94;4975683;28;20239;-92
2020/12/18 08:18:38;;;;;;;11.37;7.43;;;;;;;2.23;100.00;97518.84;4975334;28;20722;-92
2020/12/18 08:21:05;;;;;;;13.03;8.37;;;;;;;2.24;100.00;97506.72;4975576;28;20566;-92
2020/12/18 08:23:37;;;;;;;15.07;9.73;;;;;;;2.37;100.00;97512.97;4975527;28;20224;-92
2020/12/18 08:26:06;;;;;;;12.70;8.83;;;;;;;2.34;100.00;97516.53;4975328;28;20189;-92
2020/12/18 08:28:34;;;;;;;11.37;8.40;;;;;;;2.36;100.00;97509.53;4974867;28;20204;-92
2020/12/18 08:31:06;;;;;;;11.03;7.60;;;;;;;2.43;100.00;97504.88;4975117;28;20737;-93
2020/12/18 08:33:37;;;;;;;11.30;9.10;;;;;;;2.23;100.00;97507.63;4975163;28;20204;-93
2020/12/18 08:36:05;;;;;;;12.27;8.03;;;;;;;2.22;100.00;97513.72;4975172;28;20284;-92
2020/12/18 08:38:32;;;;;;;12.13;7.40;;;;;;;2.36;100.00;97516.50;4975040;28;20197;-93
2020/12/18 08:41:00;;;;;;;13.63;9.10;;;;;;;2.45;100.00;97516.00;4975118;28;20573;-92
2020/12/18 08:43:27;;;;;;;10.00;7.73;;;;;;;2.41;100.00;97514.47;4974988;28;20636;-92
2020/12/18 08:45:55;;;;;;;8.30;6.57;;;;;;;2.41;100.00;97511.88;4974687;28;20207;-93
2020/12/18 08:48:26;;;;;;;11.07;8.00;;;;;;;2.33;100.00;97508.84;4974697;28;20259;-93
2020/12/18 08:51:00;;;;;;;8.97;7.30;;;;;;;2.39;100.00;97505.97;4976184;28;20225;-92
2020/12/18 08:53:34;;;;;;;11.50;6.87;;;;;;;2.27;100.00;97515.19;4974717;28;20196;-92
2020/12/18 08:56:04;;;;;;;10.20;7.00;;;;;;;2.40;100.00;97512.81;4976914;28;20215;-92
2020/12/18 08:58:33;;;;;;;15.73;9.77;;;;;;;2.42;100.00;97507.53;4974676;28;20205;-92
2020/12/18 09:01:01;;;;;;;12.43;9.47;;;;;;;2.69;100.00;97506.13;4975669;28;20207;-93
2020/12/18 09:03:39;;;;;;;14.53;9.80;;;;;;;2.46;100.00;97502.13;4974820;28;20659;-93
2020/12/18 09:06:12;;;;;;;11.70;9.03;;;;;;;2.50;100.00;97510.59;4974572;28;20188;-93
2020/12/18 09:08:39;;;;;;;10.00;8.30;;;;;;;2.52;100.00;97499.19;4974392;28;20237;-93
2020/12/18 09:11:07;;;;;;;16.77;11.47;;;;;;;2.60;100.00;97499.66;4975356;28;20686;-93
2020/12/18 09:13:38;;;;;;;12.83;11.10;;;;;;;2.80;100.00;97495.16;4974398;28;20233;-92
2020/12/18 09:16:07;;;;;;;18.00;12.53;;;;;;;2.88;100.00;97492.19;4974392;28;20276;-92
2020/12/18 09:18:35;;;;;;;13.63;9.73;;;;;;;2.84;100.00;97507.06;4974328;28;20201;-93
2020/12/18 09:21:10;;;;;;;18.77;12.67;;;;;;;2.87;100.00;97496.53;4974633;28;20294;-93
2020/12/18 09:23:37;;;;;;;12.80;8.70;;;;;;;2.80;100.00;97492.56;4974494;28;20209;-93
2020/12/18 09:26:04;;;;;;;8.20;6.67;;;;;;;2.56;100.00;97492.97;4974554;28;20672;-93
2020/12/18 09:28:38;;;;;;;11.10;6.80;;;;;;;2.57;100.00;97501.59;4974113;28;20292;-93
2020/12/18 09:31:06;;;;;;;13.57;7.60;;;;;;;2.69;100.00;97500.94;4974176;28;20205;-93
2020/12/18 09:33:35;;;;;;;9.30;7.57;;;;;;;2.90;100.00;97495.53;4973985;28;20205;-93
2020/12/18 09:36:09;;;;;;;14.23;8.50;;;;;;;2.78;100.00;97497.03;4975005;28;20272;-93
2020/12/18 09:38:37;;;;;;;12.07;8.50;;;;;;;2.95;100.00;97494.38;4977105;28;20669;-93
2020/12/18 09:41:07;;;;;;;10.03;8.20;;;;;;;2.76;100.00;97493.66;4976449;28;20762;-93
2020/12/18 09:43:36;;;;;;;13.30;8.83;;;;;;;2.92;100.00;97494.53;4974296;28;20204;-91
2020/12/18 09:46:03;;;;;;;9.27;7.40;;;;;;;2.87;100.00;97486.13;4974423;28;20247;-92
2020/12/18 09:48:30;;;;;;;8.30;6.53;;;;;;;2.88;100.00;97492.19;4973923;28;20289;-91
2020/12/18 09:50:58;;;;;;;11.50;7.03;;;;;;;2.84;100.00;97486.28;4974429;28;20233;-91
2020/12/18 09:53:26;;;;;;;12.67;7.50;;;;;;;2.88;100.00;97487.84;4974513;28;20205;-91
2020/12/18 09:55:54;;;;;;;12.17;7.90;;;;;;;2.98;100.00;97483.84;4974630;28;20201;-92
2020/12/18 09:58:21;;;;;;;11.10;8.10;;;;;;;3.12;100.00;97484.81;4974667;28;20666;-91
2020/12/18 10:00:49;;;;;;;10.53;8.50;;;;;;;3.17;100.00;97488.03;4978439;28;20615;-91
2020/12/18 10:03:16;;;;;;;9.27;7.77;;;;;;;3.27;100.00;97484.00;4977974;28;20197;-90
2020/12/18 10:05:44;;;;;;;10.70;8.00;;;;;;;3.16;100.00;97484.59;4978356;28;20581;-91
2020/12/18 10:08:11;;;;;;;10.07;7.10;;;;;;;3.10;100.00;97477.97;4977668;28;20291;-91
2020/12/18 10:10:38;;;;;;;11.37;7.87;;;;;;;3.18;100.00;97479.31;4978180;28;20209;-90
2020/12/18 10:13:05;;;;;;;9.83;7.10;;;;;;;3.18;100.00;97464.56;4977719;28;20232;-92
2020/12/18 10:15:33;;;;;;;10.03;7.50;;;;;;;3.34;100.00;97474.97;4977760;28;20208;-91
2020/12/18 10:18:01;;;;;;;10.40;7.17;;;;;;;3.50;100.00;97465.41;4977997;28;20216;-91
2020/12/18 10:20:28;;;;;;;11.40;8.17;;;;;;;3.47;100.00;97465.56;4977978;28;20284;-93
2020/12/18 10:22:54;;;;;;;11.57;8.10;;;;;;;3.24;100.00;97466.00;4978197;28;20232;-92
2020/12/18 10:25:21;;;;;;;13.80;8.37;;;;;;;3.30;100.00;97469.09;4978099;28;20200;-92
2020/12/18 10:27:48;;;;;;;19.93;9.90;;;;;;;3.31;100.00;97475.13;4977894;28;20197;-92
2020/12/18 10:30:15;;;;;;;15.77;11.50;;;;;;;3.18;100.00;97471.50;4977695;28;20329;-92
2020/12/18 10:32:45;;;;;;;16.17;10.77;;;;;;;2.97;100.00;97463.94;4977686;28;20229;-92
2020/12/18 10:35:13;;;;;;;19.43;12.73;;;;;;;3.09;100.00;97465.91;4977704;28;20193;-92
2020/12/18 10:37:41;;;;;;;17.93;13.90;;;;;;;3.28;100.00;97462.28;4977753;28;20193;-92
2020/12/18 10:40:07;;;;;;;14.97;10.63;;;;;;;3.26;100.00;97457.19;4977664;28;20252;-92
2020/12/18 10:42:34;;;;;;;13.63;9.27;;;;;;;3.26;100.00;97458.97;4978026;28;20685;-91
2020/12/18 10:45:01;;;;;;;18.07;12.17;;;;;;;3.28;100.00;97455.34;4977713;28;20297;-92
2020/12/18 10:47:28;;;;;;;14.87;11.53;;;;;;;3.38;100.00;97450.47;4977618;28;20229;-92
2020/12/18 10:49:55;;;;;;;13.03;9.37;;;;;;;3.80;100.00;97441.16;4977498;28;20213;-92
2020/12/18 10:52:24;;;;;;;16.20;11.27;;;;;;;3.65;100.00;97448.09;4977273;28;20225;-92
2020/12/18 10:54:52;;;;;;;14.23;10.90;;;;;;;3.78;100.00;97443.88;4977734;28;20204;-92
2020/12/18 10:57:19;;;;;;;14.37;11.93;;;;;;;4.15;100.00;97440.88;4978063;28;20201;-92
2020/12/18 10:59:47;;;;;;;16.87;12.70;;;;;;;4.23;100.00;97438.69;4977296;28;20328;-92
2020/12/18 11:02:13;;;;;;;17.43;11.73;;;;;;;4.22;100.00;97435.22;4977321;28;20235;-92
2020/12/18 11:04:40;;;;;;;15.27;11.57;;;;;;;4.33;100.00;97433.75;4977310;28;20193;-92
2020/12/18 11:07:07;;;;;;;13.33;9.60;;;;;;;4.20;100.00;97431.91;4976791;28;20217;-92
2020/12/18 11:09:36;;;;;;;13.37;8.33;;;;;;;4.26;100.00;97428.06;4976443;28;20201;-93
2020/12/18 11:12:02;;;;;;;11.60;9.17;;;;;;;4.09;100.00;97425.63;4976886;28;20308;-93
2020/12/18 11:14:29;;;;;;;10.07;7.83;;;;;;;4.05;100.00;97422.38;4976558;28;20241;-93
2020/12/18 11:16:56;;;;;;;12.23;8.80;;;;;;;4.05;100.00;97423.25;4976535;28;20292;-93
2020/12/18 11:19:23;;;;;;;11.27;8.70;;;;;;;4.22;100.00;97422.22;4976840;28;20197;-93
2020/12/18 11:21:51;;;;;;;13.23;9.60;;;;;;;4.22;100.00;97418.78;4976708;28;20208;-93
2020/12/18 11:24:18;;;;;;;11.57;8.13;;;;;;;4.40;100.00;97415.09;4976647;28;20293;-93
2020/12/18 11:26:52;;;;;;;11.03;8.03;;;;;;;4.06;100.00;97416.25;4976537;28;20221;-93
2020/12/18 11:29:19;;;;;;;10.00;7.90;;;;;;;4.43;100.00;97411.44;4976600;28;20194;-93
2020/12/18 11:31:48;;;;;;;13.10;9.47;;;;;;;5.47;100.00;97410.16;4976567;28;20260;-94
2020/12/18 11:34:15;;;;;;;10.60;8.30;;;;;;;7.11;100.00;97401.69;4976709;28;20197;-94
2020/12/18 11:36:42;;;;;;;11.97;8.63;;;;;;;8.20;100.00;97402.38;4976793;28;20216;-95
2020/12/18 11:39:09;;;;;;;9.43;7.33;;;;;;;8.21;100.00;97398.81;4976297;28;20209;-94
2020/12/18 11:41:36;;;;;;;9.23;7.47;;;;;;;8.25;100.00;97392.38;4976327;28;20205;-94
2020/12/18 11:44:04;;;;;;;13.97;8.30;;;;;;;8.13;100.00;97393.31;4976158;28;20201;-94
2020/12/18 11:46:31;;;;;;;12.23;8.77;;;;;;;8.89;98.31;97396.25;4976443;28;20200;-95
2020/12/18 11:48:58;;;;;;;12.20;8.53;;;;;;;8.46;97.76;97395.19;4976432;28;20241;-95
2020/12/18 11:51:29;;;;;;;10.60;8.40;;;;;;;8.78;96.03;97390.06;4976771;28;20232;-94
2020/12/18 11:53:56;;;;;;;12.23;8.10;;;;;;;9.22;93.64;97387.53;4978706;28;20255;-95
2020/12/18 11:56:23;;;;;;;9.57;7.03;;;;;;;9.13;90.36;97385.63;4984956;28;20208;-94
2020/12/18 11:58:50;;;;;;;11.40;8.43;;;;;;;8.95;91.32;97380.03;4980888;28;20197;-94
2020/12/18 12:01:22;;;;;;;10.43;7.67;;;;;;;9.42;90.17;97384.13;4977954;28;20679;-96
2020/12/18 12:03:49;;;;;;;9.73;7.70;;;;;;;8.66;85.88;97377.94;4977777;28;20566;-96
2020/12/18 12:06:16;;;;;;;12.27;9.13;;;;;;;8.27;92.43;97385.22;4976468;28;20212;-96
2020/12/18 12:08:43;;;;;;;11.43;8.40;;;;;;;8.40;93.70;97385.16;4975999;28;20213;-95
2020/12/18 12:11:12;;;;;;;10.97;8.73;;;;;;;9.34;89.73;97375.19;4976621;28;20232;-96